Time;durP1;ratioP1;P1;durP2;ratioP2;P2;SDS_P1;SDS_P2;PMS_P1;PMS_P2;Temp;Humidity;BMP_temperature;BMP_pressure;BME280_temperature;BME280_humidity;BME280_pressure;Samples;Min_cycle;Max_cycle;Signal;HPM_P1;HPM_P2
2023/06/14 00:00:46;;;;;;;5.18;4.78;;;15.00;99.90;;;;;;5147127;28;20475;-70
2023/06/14 00:03:17;;;;;;;5.20;4.47;;;14.80;99.90;;;;;;5147662;28;20503;-70
2023/06/14 00:05:48;;;;;;;4.75;4.35;;;15.10;99.90;;;;;;5147795;28;20019;-70
2023/06/14 00:08:21;;;;;;;4.88;4.30;;;14.90;99.90;;;;;;5147632;28;20034;-70
2023/06/14 00:10:51;;;;;;;5.05;4.65;;;14.90;99.90;;;;;;5144294;28;20027;-70
2023/06/14 00:13:23;;;;;;;7.60;4.78;;;14.90;99.90;;;;;;5147462;28;20035;-70
2023/06/14 00:15:54;;;;;;;6.35;5.72;;;14.90;99.90;;;;;;5147136;28;20571;-70
2023/06/14 00:18:26;;;;;;;5.93;5.05;;;14.70;99.90;;;;;;5146235;28;20035;-70
2023/06/14 00:20:57;;;;;;;5.90;5.40;;;14.70;99.90;;;;;;5146014;28;20038;-70
2023/06/14 00:23:28;;;;;;;6.50;5.90;;;14.70;99.90;;;;;;5147349;28;20027;-70
2023/06/14 00:25:59;;;;;;;5.90;5.15;;;14.60;99.90;;;;;;5146793;28;20035;-70
2023/06/14 00:28:30;;;;;;;8.20;5.72;;;14.60;99.90;;;;;;5146006;28;20038;-70
2023/06/14 00:31:01;;;;;;;6.75;5.93;;;14.70;99.90;;;;;;5146918;28;20549;-70
2023/06/14 00:33:31;;;;;;;6.95;6.30;;;14.70;99.90;;;;;;5147225;28;20481;-70
2023/06/14 00:36:02;;;;;;;6.40;5.80;;;14.70;99.90;;;;;;5147123;28;20039;-70
2023/06/14 00:38:33;;;;;;;7.05;6.45;;;14.70;99.90;;;;;;5147102;28;20031;-70
2023/06/14 00:41:04;;;;;;;5.97;5.40;;;14.70;99.90;;;;;;5146179;28;20019;-72
2023/06/14 00:43:35;;;;;;;6.60;4.72;;;14.60;99.90;;;;;;5146698;28;20451;-70
2023/06/14 00:46:06;;;;;;;5.20;4.65;;;14.70;99.90;;;;;;5145799;28;20023;-71
2023/06/14 00:48:39;;;;;;;6.63;4.55;;;14.80;99.90;;;;;;5146788;28;20045;-70
2023/06/14 00:51:10;;;;;;;6.50;4.75;;;14.90;99.90;;;;;;5146568;28;20442;-70
2023/06/14 00:53:45;;;;;;;6.55;5.85;;;14.90;99.90;;;;;;5146662;28;20113;-70
2023/06/14 00:56:20;;;;;;;7.18;5.68;;;14.90;99.90;;;;;;5146038;28;20034;-71
2023/06/14 00:58:52;;;;;;;9.50;5.20;;;14.90;99.90;;;;;;5146635;28;20038;-71
2023/06/14 01:01:24;;;;;;;5.68;5.18;;;14.80;99.90;;;;;;5146588;28;20380;-70
2023/06/14 01:03:55;;;;;;;5.60;5.10;;;14.90;99.90;;;;;;5146578;28;20491;-70
2023/06/14 01:06:42;;;;;;;5.05;4.55;;;15.00;99.90;;;;;;5145218;28;20766;-70
2023/06/14 01:09:23;;;;;;;5.82;4.95;;;14.90;99.90;;;;;;5161363;28;20034;-70
2023/06/14 01:12:35;;;;;;;7.72;4.85;;;14.70;99.90;;;;;;5146185;28;20057;-70
2023/06/14 01:15:07;;;;;;;5.43;4.88;;;14.80;99.90;;;;;;5125479;28;20043;-70
2023/06/14 01:17:43;;;;;;;6.00;5.40;;;14.90;99.90;;;;;;5146171;28;20427;-70
2023/06/14 01:20:17;;;;;;;5.78;5.20;;;14.90;99.90;;;;;;5146224;28;20379;-70
2023/06/14 01:22:51;;;;;;;6.03;5.53;;;15.00;99.90;;;;;;5146192;28;20467;-70
2023/06/14 01:25:23;;;;;;;5.68;5.07;;;14.80;99.90;;;;;;5146001;28;20034;-70
2023/06/14 01:27:58;;;;;;;6.85;5.30;;;15.00;99.90;;;;;;5146155;28;20023;-70
2023/06/14 01:30:30;;;;;;;7.95;5.63;;;15.00;99.90;;;;;;5144529;28;20034;-70
2023/06/14 01:33:02;;;;;;;6.07;5.47;;;15.00;99.90;;;;;;5145943;28;20046;-70
2023/06/14 01:35:32;;;;;;;5.72;5.22;;;15.00;99.90;;;;;;5144787;28;20029;-70
2023/06/14 01:38:04;;;;;;;5.07;4.65;;;14.90;99.90;;;;;;5161109;28;20114;-70
2023/06/14 01:40:36;;;;;;;6.47;5.88;;;14.80;99.90;;;;;;5146024;28;20034;-70
2023/06/14 01:43:07;;;;;;;6.18;5.57;;;14.80;99.90;;;;;;5146044;28;20038;-70
2023/06/14 01:45:40;;;;;;;6.47;5.82;;;14.70;99.90;;;;;;5145050;28;20081;-71
2023/06/14 01:48:12;;;;;;;6.43;5.72;;;14.80;99.90;;;;;;5145754;28;20019;-70
2023/06/14 01:50:43;;;;;;;6.57;5.93;;;14.90;99.90;;;;;;5145662;28;20038;-70
2023/06/14 01:53:13;;;;;;;6.05;5.55;;;15.10;99.90;;;;;;5145681;28;20035;-70
2023/06/14 01:55:48;;;;;;;5.85;5.18;;;14.90;99.90;;;;;;5145411;28;20542;-70
2023/06/14 01:58:19;;;;;;;5.82;5.03;;;15.00;99.90;;;;;;5145604;28;20026;-70
2023/06/14 02:00:51;;;;;;;6.15;4.97;;;14.90;99.90;;;;;;5143115;28;20026;-70
2023/06/14 02:03:23;;;;;;;5.25;4.78;;;14.90;99.90;;;;;;5144245;28;20033;-70
2023/06/14 02:05:55;;;;;;;5.88;5.35;;;15.00;99.90;;;;;;5145486;28;20065;-70
2023/06/14 02:08:26;;;;;;;5.32;4.82;;;15.10;99.90;;;;;;5144231;28;20033;-71
2023/06/14 02:10:57;;;;;;;5.30;4.90;;;15.00;99.90;;;;;;5145251;28;20042;-70
2023/06/14 02:13:27;;;;;;;6.05;5.30;;;15.00;99.90;;;;;;5145220;28;20077;-71
2023/06/14 02:15:59;;;;;;;6.57;5.35;;;15.00;99.90;;;;;;5144431;28;20043;-70
2023/06/14 02:18:30;;;;;;;5.85;5.25;;;15.10;99.90;;;;;;5145380;28;20043;-70
2023/06/14 02:21:01;;;;;;;6.03;5.60;;;15.10;99.90;;;;;;5145223;28;20128;-70
2023/06/14 02:23:32;;;;;;;6.65;6.07;;;14.80;99.90;;;;;;5144380;28;20115;-70
2023/06/14 02:26:03;;;;;;;6.00;5.47;;;14.90;99.90;;;;;;5143056;28;20023;-70
2023/06/14 02:28:35;;;;;;;5.95;5.25;;;14.90;99.90;;;;;;5144540;28;20763;-70
2023/06/14 02:31:06;;;;;;;5.70;5.20;;;14.90;99.90;;;;;;5144991;28;20033;-70
2023/06/14 02:33:37;;;;;;;8.07;5.45;;;15.00;99.90;;;;;;5145081;28;20445;-70
2023/06/14 02:36:08;;;;;;;6.65;6.05;;;15.10;99.90;;;;;;5144153;28;20107;-70
2023/06/14 02:38:39;;;;;;;7.70;5.82;;;14.90;99.90;;;;;;5144910;28;20109;-70
2023/06/14 02:41:10;;;;;;;6.68;5.30;;;15.10;99.90;;;;;;5144992;28;20363;-70
2023/06/14 02:43:41;;;;;;;5.60;5.15;;;15.10;99.90;;;;;;5143442;28;20390;-70
2023/06/14 02:46:12;;;;;;;7.38;5.72;;;15.00;99.90;;;;;;5144888;28;20031;-70
2023/06/14 02:48:43;;;;;;;7.05;5.57;;;14.80;99.90;;;;;;5143771;28;20046;-70
2023/06/14 02:51:14;;;;;;;5.70;5.05;;;14.90;99.90;;;;;;5144287;28;20023;-70
2023/06/14 02:53:45;;;;;;;5.43;4.93;;;15.00;99.90;;;;;;5144963;28;20050;-70
2023/06/14 02:56:17;;;;;;;6.03;5.45;;;15.10;99.90;;;;;;5143821;28;20110;-70
2023/06/14 02:58:48;;;;;;;5.80;5.30;;;15.00;99.90;;;;;;5144437;28;20078;-70
2023/06/14 03:01:20;;;;;;;5.97;5.50;;;15.10;99.90;;;;;;5144841;28;20033;-70
2023/06/14 03:03:51;;;;;;;6.03;4.57;;;15.00;99.90;;;;;;5144862;28;20110;-70
2023/06/14 03:06:24;;;;;;;5.57;4.55;;;15.00;99.90;;;;;;5144279;28;20034;-70
2023/06/14 03:08:59;;;;;;;5.80;5.15;;;15.00;99.90;;;;;;5147134;28;20015;-70
2023/06/14 03:11:31;;;;;;;5.53;5.07;;;14.90;99.90;;;;;;5148533;28;20071;-70
2023/06/14 03:14:04;;;;;;;5.55;5.10;;;14.70;99.90;;;;;;5148468;28;20084;-70
2023/06/14 03:16:35;;;;;;;6.10;5.60;;;14.80;99.90;;;;;;5148297;28;20054;-70
2023/06/14 03:19:06;;;;;;;6.30;5.68;;;14.70;99.90;;;;;;5148610;28;20027;-70
2023/06/14 03:21:36;;;;;;;7.03;6.38;;;14.70;99.90;;;;;;5147748;28;20097;-70
2023/06/14 03:24:07;;;;;;;9.02;6.30;;;14.90;99.90;;;;;;5147839;28;20053;-71
2023/06/14 03:26:38;;;;;;;5.88;5.40;;;15.10;99.90;;;;;;5148414;28;20490;-70
2023/06/14 03:29:09;;;;;;;6.57;6.03;;;15.10;99.90;;;;;;5148315;28;20031;-70
2023/06/14 03:32:00;;;;;;;5.97;5.35;;;15.10;99.90;;;;;;5148192;28;20031;-71
2023/06/14 03:34:30;;;;;;;6.35;5.85;;;15.10;99.90;;;;;;5148398;28;20027;-70
2023/06/14 03:37:01;;;;;;;7.28;5.90;;;15.20;99.90;;;;;;5163195;28;20034;-70
2023/06/14 03:39:32;;;;;;;6.90;6.30;;;15.10;99.90;;;;;;5146134;28;20034;-70
2023/06/14 03:42:04;;;;;;;6.93;6.30;;;15.10;99.90;;;;;;5146697;28;20080;-70
2023/06/14 03:44:35;;;;;;;7.43;5.70;;;15.30;99.90;;;;;;5147963;28;20089;-70
2023/06/14 03:47:06;;;;;;;6.68;6.15;;;15.30;99.90;;;;;;5148038;28;20031;-70
2023/06/14 03:49:37;;;;;;;6.05;5.55;;;15.30;99.90;;;;;;5147968;28;20055;-70
2023/06/14 03:52:07;;;;;;;5.88;5.47;;;15.20;99.90;;;;;;5147896;28;20081;-70
2023/06/14 03:54:38;;;;;;;6.93;5.68;;;15.20;99.90;;;;;;5146698;28;20105;-70
2023/06/14 03:57:10;;;;;;;6.32;5.75;;;15.20;99.90;;;;;;5140206;28;20035;-70
2023/06/14 03:59:41;;;;;;;7.78;6.35;;;15.30;99.90;;;;;;5148059;28;20034;-70
2023/06/14 04:02:15;;;;;;;6.57;5.78;;;15.30;99.90;;;;;;5146833;28;20023;-70
2023/06/14 04:04:46;;;;;;;6.38;5.22;;;15.40;99.90;;;;;;5147747;28;20031;-70
2023/06/14 04:07:20;;;;;;;6.78;5.72;;;15.50;99.90;;;;;;5147781;28;20027;-70
2023/06/14 04:09:50;;;;;;;6.05;5.50;;;15.60;99.90;;;;;;5147671;28;20509;-70
2023/06/14 04:12:21;;;;;;;6.45;5.85;;;15.60;99.90;;;;;;5145652;28;20126;-71
2023/06/14 04:14:52;;;;;;;7.00;5.78;;;15.60;99.90;;;;;;5147443;28;20215;-71
2023/06/14 04:28:50;;;;;;;;;;;15.60;99.90;;;;;;5308042;27;20397;-70
2023/06/14 04:31:25;;;;;;;7.43;6.68;;;16.10;99.90;;;;;;5306074;28;19968;-70
2023/06/14 04:33:59;;;;;;;6.53;5.93;;;16.20;99.90;;;;;;5307052;28;20029;-70
2023/06/14 04:36:30;;;;;;;6.80;6.20;;;16.30;99.90;;;;;;5306699;27;20110;-70
2023/06/14 04:39:03;;;;;;;7.20;6.53;;;16.40;99.90;;;;;;5289055;27;20032;-70
2023/06/14 04:41:34;;;;;;;6.55;5.93;;;16.50;99.90;;;;;;5307305;28;20004;-70
2023/06/14 04:44:07;;;;;;;6.25;5.65;;;16.60;99.90;;;;;;5307082;28;20121;-70
2023/06/14 04:46:45;;;;;;;6.85;6.25;;;16.70;99.90;;;;;;5288792;28;20015;-70
2023/06/14 04:49:17;;;;;;;6.70;6.10;;;16.80;99.90;;;;;;5307250;27;20035;-69
2023/06/14 04:51:50;;;;;;;6.05;5.53;;;16.80;99.90;;;;;;5296550;27;20019;-69
2023/06/14 04:54:21;;;;;;;6.32;5.80;;;16.80;99.90;;;;;;5267577;28;20459;-70
2023/06/14 04:56:53;;;;;;;6.15;5.55;;;16.80;99.90;;;;;;5267175;28;20032;-69
2023/06/14 04:59:23;;;;;;;6.15;5.65;;;16.70;99.90;;;;;;5285507;28;20118;-70
2023/06/14 05:01:56;;;;;;;6.28;5.78;;;16.80;99.90;;;;;;5285595;28;20099;-69
2023/06/14 05:04:28;;;;;;;5.75;5.25;;;17.00;99.90;;;;;;5285643;28;20027;-70
2023/06/14 05:06:59;;;;;;;8.18;5.63;;;17.30;99.90;;;;;;5285344;28;20020;-70
2023/06/14 05:09:30;;;;;;;6.15;5.60;;;17.30;99.90;;;;;;5285561;28;20038;-70
2023/06/14 05:12:01;;;;;;;7.88;5.80;;;17.30;99.90;;;;;;5285386;28;20378;-69
2023/06/14 05:14:32;;;;;;;6.03;5.53;;;17.30;99.90;;;;;;5285244;28;20107;-71
2023/06/14 05:17:03;;;;;;;5.90;5.40;;;17.30;99.90;;;;;;5285211;28;20123;-71
2023/06/14 05:19:34;;;;;;;7.10;5.55;;;17.50;99.90;;;;;;5285074;28;20028;-71
2023/06/14 05:22:04;;;;;;;6.70;6.20;;;17.50;99.90;;;;;;5285194;28;20413;-71
2023/06/14 05:24:35;;;;;;;6.65;6.05;;;17.70;99.90;;;;;;5297247;27;20359;-69
2023/06/14 05:27:06;;;;;;;7.20;6.50;;;17.80;99.90;;;;;;5305435;27;20039;-70
2023/06/14 05:29:37;;;;;;;8.10;7.40;;;18.00;99.90;;;;;;5292869;28;20035;-70
2023/06/14 05:32:08;;;;;;;9.52;8.82;;;18.40;99.90;;;;;;5292131;28;20070;-70
2023/06/14 05:34:39;;;;;;;11.23;10.23;;;18.60;99.90;;;;;;5291976;28;20776;-70
2023/06/14 05:37:10;;;;;;;9.60;8.68;;;18.60;99.90;;;;;;5291952;28;20040;-70
2023/06/14 05:39:41;;;;;;;10.73;9.73;;;18.90;99.90;;;;;;5291996;28;20097;-70
2023/06/14 05:42:12;;;;;;;10.98;10.07;;;19.30;99.90;;;;;;5290862;28;20024;-70
2023/06/14 05:44:43;;;;;;;10.43;9.55;;;19.60;99.90;;;;;;5291753;28;20031;-69
2023/06/14 05:47:14;;;;;;;9.40;8.10;;;19.70;99.90;;;;;;5291847;28;20380;-70
2023/06/14 05:49:45;;;;;;;7.72;6.55;;;19.70;99.90;;;;;;5291621;28;20027;-69
2023/06/14 05:52:16;;;;;;;8.90;7.30;;;19.70;99.90;;;;;;5291635;28;20082;-72
2023/06/14 05:54:47;;;;;;;7.75;6.72;;;19.80;99.90;;;;;;5271159;28;20352;-69
2023/06/14 05:57:18;;;;;;;7.28;6.65;;;19.80;99.90;;;;;;5270287;28;20490;-70
2023/06/14 05:59:50;;;;;;;14.02;8.55;;;19.90;99.90;;;;;;5270214;28;20020;-70
2023/06/14 06:02:21;;;;;;;9.55;8.52;;;20.00;99.90;;;;;;5270578;28;20024;-70
2023/06/14 06:04:51;;;;;;;9.45;8.60;;;20.10;99.90;;;;;;5270264;28;20027;-70
2023/06/14 06:07:22;;;;;;;9.98;8.95;;;20.10;99.90;;;;;;5270138;28;20028;-70
2023/06/14 06:09:53;;;;;;;9.75;8.85;;;20.10;99.90;;;;;;5269976;28;20030;-70
2023/06/14 06:12:24;;;;;;;9.50;8.48;;;20.10;99.90;;;;;;5289796;28;20050;-69
2023/06/14 06:14:55;;;;;;;9.05;8.13;;;20.20;99.90;;;;;;5291053;28;20023;-70
2023/06/14 06:17:26;;;;;;;8.05;7.22;;;20.30;99.90;;;;;;5291332;28;20028;-69
2023/06/14 06:19:57;;;;;;;8.23;7.63;;;20.30;99.90;;;;;;5291102;28;20464;-69
2023/06/14 06:22:28;;;;;;;8.88;8.07;;;20.40;99.90;;;;;;5291130;28;20027;-69
2023/06/14 06:24:59;;;;;;;10.13;8.43;;;20.60;99.90;;;;;;5270217;28;20032;-69
2023/06/14 06:27:30;;;;;;;8.70;7.90;;;20.60;99.90;;;;;;5269494;28;20105;-70
2023/06/14 06:30:01;;;;;;;8.55;7.50;;;20.60;99.90;;;;;;5270010;28;20016;-69
2023/06/14 06:32:32;;;;;;;8.98;8.23;;;20.70;99.90;;;;;;5269858;28;20027;-70
2023/06/14 06:35:06;;;;;;;8.25;7.45;;;20.60;99.90;;;;;;5285920;28;20369;-69
2023/06/14 06:37:37;;;;;;;8.23;7.43;;;20.70;99.90;;;;;;5290884;28;20027;-70
2023/06/14 06:40:08;;;;;;;8.27;7.47;;;20.60;99.90;;;;;;5289921;28;20115;-70
2023/06/14 06:42:39;;;;;;;9.82;7.20;;;20.60;99.90;;;;;;5290673;28;20054;-70
2023/06/14 06:45:10;;;;;;;8.30;7.70;;;20.60;99.90;;;;;;5290783;28;20107;-70
2023/06/14 06:47:41;;;;;;;7.68;6.97;;;20.60;99.90;;;;;;5289446;28;20023;-70
2023/06/14 06:50:12;;;;;;;9.98;8.43;;;20.60;99.90;;;;;;5290483;28;20032;-70
2023/06/14 06:52:42;;;;;;;8.18;7.47;;;20.70;99.90;;;;;;5289276;28;20046;-69
2023/06/14 06:55:14;;;;;;;11.57;8.93;;;20.90;99.90;;;;;;5290451;28;20371;-71
2023/06/14 06:57:45;;;;;;;8.95;7.47;;;20.90;99.90;;;;;;5290367;28;20043;-70
2023/06/14 07:00:17;;;;;;;9.73;8.63;;;20.80;99.90;;;;;;5290420;28;20428;-70
2023/06/14 07:02:48;;;;;;;8.48;7.78;;;21.00;99.90;;;;;;5290213;28;20024;-70
2023/06/14 07:05:19;;;;;;;10.63;7.78;;;21.00;99.90;;;;;;5290206;28;20074;-70
2023/06/14 07:07:50;;;;;;;9.38;8.60;;;21.00;99.90;;;;;;5290131;28;20089;-70
2023/06/14 07:10:21;;;;;;;9.27;8.23;;;20.90;99.90;;;;;;5290077;28;20019;-70
2023/06/14 07:12:51;;;;;;;9.70;8.90;;;21.00;99.90;;;;;;5290087;28;20056;-70
2023/06/14 07:15:22;;;;;;;10.15;9.20;;;20.90;99.90;;;;;;5290306;28;20434;-70
2023/06/14 07:17:53;;;;;;;9.20;8.43;;;20.90;99.90;;;;;;5289701;28;20032;-70
2023/06/14 07:20:24;;;;;;;10.55;8.85;;;20.90;99.90;;;;;;5289771;28;20054;-70
2023/06/14 07:22:55;;;;;;;13.55;10.57;;;21.00;99.90;;;;;;5289902;28;20555;-70
2023/06/14 07:25:26;;;;;;;12.52;10.73;;;21.00;99.90;;;;;;5289754;28;20095;-70
2023/06/14 07:27:57;;;;;;;9.98;9.05;;;20.90;99.90;;;;;;5289528;28;20173;-69
2023/06/14 07:30:29;;;;;;;10.77;9.48;;;21.00;99.90;;;;;;5289906;28;20034;-70
2023/06/14 07:33:00;;;;;;;13.90;10.27;;;21.00;99.90;;;;;;5289644;28;20035;-70
2023/06/14 07:35:31;;;;;;;12.68;10.88;;;20.90;99.90;;;;;;5289551;28;20028;-69
2023/06/14 07:38:02;;;;;;;15.90;10.57;;;21.00;99.90;;;;;;5289394;28;20036;-70
2023/06/14 07:40:33;;;;;;;11.05;10.13;;;21.10;99.90;;;;;;5289443;28;20024;-70
2023/06/14 07:43:04;;;;;;;12.75;9.25;;;21.10;99.90;;;;;;5289556;28;20118;-70
2023/06/14 07:45:35;;;;;;;11.00;9.90;;;21.10;99.90;;;;;;5289270;28;20023;-70
2023/06/14 07:48:06;;;;;;;13.10;10.18;;;21.40;99.90;;;;;;5289283;28;20030;-70
2023/06/14 07:50:36;;;;;;;11.73;9.63;;;21.60;99.90;;;;;;5289215;28;20012;-70
2023/06/14 07:53:07;;;;;;;10.88;9.88;;;21.70;99.90;;;;;;5289093;28;20063;-70
2023/06/14 07:55:39;;;;;;;10.80;9.23;;;21.90;99.90;;;;;;5289240;28;20023;-70
2023/06/14 07:58:10;;;;;;;12.02;8.35;;;21.90;99.90;;;;;;5289417;28;20071;-70
2023/06/14 08:00:41;;;;;;;9.25;8.23;;;21.80;99.90;;;;;;5289242;28;20020;-70
2023/06/14 08:03:12;;;;;;;11.50;9.20;;;21.80;99.90;;;;;;5289190;28;20028;-70
2023/06/14 08:05:43;;;;;;;10.85;8.82;;;21.50;99.90;;;;;;5289239;28;20538;-69
2023/06/14 08:08:13;;;;;;;11.80;8.95;;;21.50;99.90;;;;;;5289130;28;20031;-70
2023/06/14 08:10:44;;;;;;;10.85;9.48;;;21.50;99.90;;;;;;5289111;28;20028;-70
2023/06/14 08:13:15;;;;;;;10.48;9.38;;;21.50;99.90;;;;;;5289308;28;20027;-70
2023/06/14 08:15:46;;;;;;;12.63;10.23;;;21.80;99.90;;;;;;5289106;28;20035;-70
2023/06/14 08:18:17;;;;;;;10.43;9.48;;;21.90;99.90;;;;;;5288779;28;20110;-70
2023/06/14 08:20:48;;;;;;;13.45;9.75;;;22.00;99.90;;;;;;5288972;28;20094;-70
2023/06/14 08:23:20;;;;;;;10.02;9.13;;;22.20;99.90;;;;;;5288913;28;20065;-69
2023/06/14 08:25:51;;;;;;;10.60;9.38;;;22.20;99.90;;;;;;5288912;28;20023;-70
2023/06/14 08:28:24;;;;;;;9.60;8.60;;;22.00;99.90;;;;;;5288847;28;20088;-70
2023/06/14 08:30:55;;;;;;;11.90;8.38;;;21.90;99.90;;;;;;5288792;28;20024;-70
2023/06/14 08:33:26;;;;;;;10.40;9.00;;;21.70;99.90;;;;;;5288853;28;20047;-70
2023/06/14 08:35:57;;;;;;;9.48;8.57;;;21.70;99.90;;;;;;5288813;28;20157;-70
2023/06/14 08:38:28;;;;;;;10.55;9.40;;;21.60;99.90;;;;;;5288556;28;20797;-70
2023/06/14 08:41:00;;;;;;;11.32;9.57;;;21.70;99.90;;;;;;5288699;28;20024;-70
2023/06/14 08:43:31;;;;;;;11.88;10.65;;;21.60;99.90;;;;;;5288995;28;20143;-70
2023/06/14 08:46:04;;;;;;;11.32;9.82;;;21.50;99.90;;;;;;5288623;28;20501;-69
2023/06/14 08:48:34;;;;;;;16.40;10.32;;;21.50;99.90;;;;;;5288549;28;20486;-70
2023/06/14 08:51:06;;;;;;;11.20;10.23;;;21.50;99.90;;;;;;5270385;28;20047;-70
2023/06/14 08:53:41;;;;;;;11.18;10.05;;;21.50;99.90;;;;;;5288682;28;20106;-70
2023/06/14 08:56:13;;;;;;;12.18;11.05;;;21.50;99.90;;;;;;5288626;28;20098;-70
2023/06/14 08:58:45;;;;;;;13.43;9.98;;;21.70;99.90;;;;;;5288612;28;20035;-70
2023/06/14 09:01:17;;;;;;;11.43;10.15;;;21.80;99.90;;;;;;5288561;28;20026;-70
2023/06/14 09:03:49;;;;;;;13.68;9.40;;;21.80;99.90;;;;;;5290215;28;20046;-70
2023/06/14 09:06:22;;;;;;;12.07;9.50;;;21.90;99.90;;;;;;5292568;28;20368;-70
2023/06/14 09:08:56;;;;;;;10.27;8.93;;;21.90;99.90;;;;;;5292503;28;20033;-70
2023/06/14 09:11:27;;;;;;;11.10;9.15;;;21.80;99.90;;;;;;5292974;28;20016;-70
2023/06/14 09:13:58;;;;;;;12.07;10.82;;;21.80;99.90;;;;;;5292694;28;20040;-70
2023/06/14 09:16:31;;;;;;;12.07;10.98;;;21.70;99.90;;;;;;5292652;28;20023;-70
2023/06/14 09:19:02;;;;;;;11.70;10.55;;;21.50;99.90;;;;;;5292084;28;20046;-70
2023/06/14 09:21:37;;;;;;;11.80;9.55;;;21.40;99.90;;;;;;5292517;28;20027;-72
2023/06/14 09:24:14;;;;;;;11.02;10.13;;;21.50;99.90;;;;;;5292378;28;20023;-70
2023/06/14 09:26:47;;;;;;;12.73;10.35;;;21.50;99.90;;;;;;5292241;28;20095;-70
2023/06/14 09:29:18;;;;;;;12.13;10.50;;;21.60;99.90;;;;;;5292351;28;20686;-70
2023/06/14 09:31:49;;;;;;;11.50;10.40;;;21.70;99.90;;;;;;5292244;28;20044;-71
2023/06/14 09:34:23;;;;;;;10.52;9.63;;;21.70;99.90;;;;;;5292028;28;20032;-70
2023/06/14 09:36:54;;;;;;;10.00;8.95;;;21.90;99.90;;;;;;5291929;28;20023;-70
2023/06/14 09:39:25;;;;;;;11.15;9.02;;;22.00;99.90;;;;;;5292050;28;20032;-70
2023/06/14 09:41:56;;;;;;;10.38;8.38;;;22.10;99.90;;;;;;5292073;28;20035;-70
2023/06/14 09:44:29;;;;;;;11.85;8.50;;;22.40;99.90;;;;;;5291902;28;20062;-70
2023/06/14 09:47:02;;;;;;;9.50;8.50;;;22.30;99.90;;;;;;5291607;28;20031;-70
2023/06/14 09:49:33;;;;;;;13.25;9.02;;;22.60;99.90;;;;;;5291641;28;20020;-70
2023/06/14 09:52:05;;;;;;;8.85;8.05;;;23.00;99.90;;;;;;5291725;28;20877;-70
2023/06/14 09:54:48;;;;;;;9.25;8.50;;;23.40;99.90;;;;;;5291739;28;20032;-70
2023/06/14 09:57:23;;;;;;;11.70;8.02;;;23.70;99.90;;;;;;5291538;28;20071;-70
2023/06/14 10:00:00;;;;;;;11.82;7.97;;;23.70;99.90;;;;;;5291420;28;20031;-69
2023/06/14 10:02:37;;;;;;;9.88;8.93;;;23.80;99.90;;;;;;5291502;28;20036;-70
2023/06/14 10:05:11;;;;;;;9.35;8.40;;;24.00;99.90;;;;;;5291346;28;20028;-70
2023/06/14 10:07:52;;;;;;;9.43;8.23;;;24.00;99.90;;;;;;5291260;28;20028;-70
2023/06/14 10:10:23;;;;;;;9.15;8.35;;;24.20;99.90;;;;;;5291570;28;20089;-70
2023/06/14 10:12:54;;;;;;;9.73;7.60;;;24.20;99.90;;;;;;5291247;28;20031;-70
2023/06/14 10:15:32;;;;;;;10.13;7.57;;;24.40;99.90;;;;;;5291164;28;20056;-71
2023/06/14 10:18:32;;;;;;;9.60;8.18;;;24.40;99.90;;;;;;5290968;28;20024;-70
2023/06/14 10:21:23;;;;;;;9.88;8.75;;;24.50;99.90;;;;;;5291142;28;20028;-70
2023/06/14 10:23:55;;;;;;;9.68;8.73;;;24.50;99.90;;;;;;5272897;28;20023;-71
2023/06/14 10:26:26;;;;;;;9.05;7.57;;;25.20;99.90;;;;;;5290679;28;20036;-70
2023/06/14 10:29:06;;;;;;;9.55;8.02;;;24.80;99.90;;;;;;5290924;28;20028;-70
2023/06/14 10:31:44;;;;;;;9.07;7.50;;;25.00;99.90;;;;;;5291031;28;20536;-71
2023/06/14 10:34:38;;;;;;;9.30;7.18;;;25.00;99.90;;;;;;5290816;28;20443;-71
2023/06/14 10:37:13;;;;;;;11.57;7.38;;;25.10;99.90;;;;;;5290648;28;20040;-70
2023/06/14 10:39:47;;;;;;;10.35;7.70;;;25.00;99.90;;;;;;5290933;28;20061;-70
2023/06/14 10:42:19;;;;;;;7.63;6.93;;;25.00;99.90;;;;;;5290945;28;20482;-70
2023/06/14 10:44:51;;;;;;;7.60;6.82;;;25.10;99.90;;;;;;5290745;28;20036;-71
2023/06/14 10:47:30;;;;;;;8.38;6.63;;;24.90;99.90;;;;;;5290658;28;20020;-70
2023/06/14 10:50:09;;;;;;;6.43;5.57;;;25.10;99.90;;;;;;5290486;28;20031;-70
2023/06/14 10:52:42;;;;;;;7.63;6.35;;;25.00;99.90;;;;;;5290523;28;20030;-70
2023/06/14 10:55:22;;;;;;;7.65;5.75;;;25.00;99.90;;;;;;5290596;28;20043;-70
2023/06/14 10:57:58;;;;;;;8.32;6.03;;;25.30;99.90;;;;;;5290173;28;20052;-70
2023/06/14 11:00:34;;;;;;;7.97;6.18;;;25.60;99.90;;;;;;5290286;28;20348;-70
2023/06/14 11:03:44;;;;;;;7.07;6.47;;;25.70;99.90;;;;;;5290270;28;20022;-71
2023/06/14 11:06:17;;;;;;;7.10;5.53;;;25.70;99.90;;;;;;5290117;28;20429;-70
2023/06/14 11:09:06;;;;;;;9.38;6.50;;;25.80;99.90;;;;;;5271982;28;20129;-70
2023/06/14 11:11:41;;;;;;;6.65;5.95;;;25.50;99.90;;;;;;5289992;28;20036;-70
2023/06/14 11:14:12;;;;;;;7.55;6.07;;;25.90;99.90;;;;;;5290049;28;20045;-70
2023/06/14 11:16:48;;;;;;;7.97;6.25;;;25.80;99.90;;;;;;5289905;28;20016;-70
2023/06/14 11:19:19;;;;;;;5.95;5.43;;;25.90;99.90;;;;;;5289909;28;20844;-71
2023/06/14 11:21:50;;;;;;;6.10;5.47;;;25.90;99.90;;;;;;5290002;28;20091;-70
2023/06/14 11:24:21;;;;;;;6.30;5.28;;;25.70;99.90;;;;;;5289961;28;20106;-70
2023/06/14 11:26:52;;;;;;;6.63;5.97;;;25.70;99.90;;;;;;5288874;28;20040;-70
2023/06/14 11:29:22;;;;;;;10.98;6.20;;;25.20;99.90;;;;;;5289704;28;20067;-70
2023/06/14 11:31:53;;;;;;;7.07;6.38;;;25.00;99.90;;;;;;5289665;28;20035;-70
2023/06/14 11:34:25;;;;;;;6.78;6.18;;;24.80;99.90;;;;;;5289573;28;20054;-70
2023/06/14 11:36:55;;;;;;;6.80;6.20;;;25.00;99.90;;;;;;5289776;28;20575;-70
2023/06/14 11:39:27;;;;;;;9.25;5.80;;;24.70;99.90;;;;;;5289780;28;20024;-70
2023/06/14 11:42:01;;;;;;;8.50;6.05;;;25.10;99.90;;;;;;5289559;28;20363;-70
2023/06/14 11:44:32;;;;;;;9.45;5.93;;;25.40;99.90;;;;;;5289586;28;20022;-70
2023/06/14 11:47:04;;;;;;;8.57;6.45;;;25.60;99.90;;;;;;5289457;28;20146;-70
2023/06/14 11:49:38;;;;;;;6.35;5.88;;;25.60;99.90;;;;;;5289561;28;20088;-70
2023/06/14 11:52:09;;;;;;;7.43;6.82;;;25.80;99.90;;;;;;5289850;28;20515;-71
2023/06/14 11:54:40;;;;;;;7.45;6.65;;;25.80;99.90;;;;;;5289568;28;20028;-71
2023/06/14 11:57:11;;;;;;;6.95;5.40;;;25.70;99.90;;;;;;5289322;28;20040;-70
2023/06/14 11:59:44;;;;;;;5.47;4.72;;;25.90;99.90;;;;;;5289245;28;20344;-70
2023/06/14 12:02:16;;;;;;;9.55;5.43;;;26.00;99.90;;;;;;5289069;28;20023;-70
2023/06/14 12:04:50;;;;;;;7.63;5.47;;;25.90;99.90;;;;;;5289312;28;20073;-70
2023/06/14 12:07:22;;;;;;;7.00;6.40;;;26.00;99.90;;;;;;5289555;28;20058;-71
2023/06/14 12:09:59;;;;;;;8.30;6.28;;;25.90;99.90;;;;;;5289221;28;20020;-70
2023/06/14 12:12:30;;;;;;;8.50;5.07;;;25.80;99.90;;;;;;5289349;28;20031;-70
2023/06/14 12:15:03;;;;;;;5.80;5.35;;;26.20;99.90;;;;;;5270856;28;20489;-71
2023/06/14 12:17:35;;;;;;;5.18;4.63;;;25.40;99.90;;;;;;5288844;28;20035;-70
2023/06/14 12:20:16;;;;;;;5.22;4.72;;;25.80;99.90;;;;;;5289003;28;20062;-70
2023/06/14 12:22:56;;;;;;;6.78;5.10;;;25.50;99.90;;;;;;5289161;28;20070;-71
2023/06/14 12:25:34;;;;;;;;;;;26.00;99.90;;;;;;5289429;28;20027;-70
2023/06/14 12:28:09;;;;;;;6.07;5.47;;;26.00;99.90;;;;;;5288737;28;20363;-70
2023/06/14 12:30:40;;;;;;;10.05;5.20;;;25.90;99.90;;;;;;5288921;28;20020;-70
2023/06/14 12:33:11;;;;;;;5.18;4.68;;;26.00;99.90;;;;;;5288956;28;20085;-70
2023/06/14 12:35:42;;;;;;;4.45;4.05;;;26.10;99.90;;;;;;5289009;28;20081;-70
2023/06/14 12:38:15;;;;;;;5.68;4.10;;;25.90;99.90;;;;;;5289234;28;20050;-70
2023/06/14 12:40:46;;;;;;;5.45;4.45;;;25.80;99.90;;;;;;5293011;28;20057;-70
2023/06/14 12:43:17;;;;;;;6.47;4.78;;;25.90;99.90;;;;;;5292994;28;20035;-70
2023/06/14 12:45:48;;;;;;;8.75;4.55;;;26.20;99.90;;;;;;5293044;28;20081;-70
2023/06/14 12:48:19;;;;;;;8.23;4.50;;;26.00;99.90;;;;;;5292869;28;20023;-71
2023/06/14 12:50:50;;;;;;;5.65;4.45;;;26.10;99.90;;;;;;5293094;28;20042;-70
2023/06/14 12:53:21;;;;;;;6.75;5.43;;;26.00;99.90;;;;;;5292952;28;20024;-70
2023/06/14 12:55:52;;;;;;;6.00;4.93;;;26.20;99.90;;;;;;5292740;28;20499;-70
2023/06/14 12:58:23;;;;;;;5.25;4.85;;;26.10;99.90;;;;;;5274338;28;20059;-71
2023/06/14 13:00:54;;;;;;;9.15;5.75;;;26.40;99.90;;;;;;5292799;28;20059;-71
2023/06/14 13:03:25;;;;;;;7.38;5.22;;;26.30;99.90;;;;;;5292712;28;20062;-70
2023/06/14 13:05:56;;;;;;;6.80;5.30;;;26.40;99.90;;;;;;5274507;28;20085;-70
2023/06/14 13:08:27;;;;;;;11.85;6.10;;;26.40;99.90;;;;;;5292592;28;20019;-70
2023/06/14 13:10:58;;;;;;;8.07;6.35;;;26.50;99.90;;;;;;5292692;28;20034;-70
2023/06/14 13:13:29;;;;;;;9.88;6.22;;;26.30;99.90;;;;;;5292788;28;20019;-70
2023/06/14 13:16:00;;;;;;;7.95;4.90;;;26.40;99.90;;;;;;5292565;28;20102;-70
2023/06/14 13:18:31;;;;;;;5.82;5.22;;;26.20;99.90;;;;;;5292222;28;20035;-70
2023/06/14 13:21:01;;;;;;;6.25;5.63;;;26.30;99.90;;;;;;5292587;28;20024;-70